createdAt,value
2022-10-09T00:01:26.152Z,97582.63
2022-10-09T00:03:54.357Z,97582.53
2022-10-09T00:06:24.929Z,97577.66
2022-10-09T00:08:51.654Z,97583.31
2022-10-09T00:11:21.275Z,97582.63
2022-10-09T00:13:48.277Z,97581.59
2022-10-09T00:16:17.165Z,97587.19
2022-10-09T00:18:44.701Z,97572.75
2022-10-09T00:21:16.896Z,97577.03
2022-10-09T00:23:43.462Z,97587.44
2022-10-09T00:26:10.122Z,97587.53
2022-10-09T00:28:38.728Z,97581.78
2022-10-09T00:31:07.750Z,97585.72
2022-10-09T00:33:35.218Z,97588.84
2022-10-09T00:36:09.211Z,97581.66
2022-10-09T00:38:36.741Z,97579.81
2022-10-09T00:41:03.544Z,97567.28
2022-10-09T00:43:44.173Z,97569.09
2022-10-09T00:46:22.925Z,97569.31
2022-10-09T00:49:03.817Z,97567.03
2022-10-09T00:51:31.208Z,97563.38
2022-10-09T00:53:59.633Z,97554.81
2022-10-09T00:56:26.449Z,97554.81
2022-10-09T00:58:56.018Z,97564.44
2022-10-09T01:01:22.660Z,97550.34
2022-10-09T01:03:49.261Z,97553.06
2022-10-09T01:06:51.476Z,97551.75
2022-10-09T01:09:19.919Z,97552.66
2022-10-09T01:12:06.661Z,97551.50
2022-10-09T01:14:39.453Z,97552.41
2022-10-09T01:17:24.800Z,97549.06
2022-10-09T01:19:57.757Z,97557.09
2022-10-09T01:22:37.693Z,97550.31
2022-10-09T01:25:07.132Z,97555.63
2022-10-09T01:27:36.101Z,97550.63
2022-10-09T01:30:09.650Z,97549.06
2022-10-09T01:32:50.291Z,97553.44
2022-10-09T01:35:18.006Z,97553.97
2022-10-09T01:37:45.939Z,97552.72
2022-10-09T01:40:17.354Z,97555.88
2022-10-09T01:42:46.482Z,97549.06
2022-10-09T01:45:14.837Z,97550.63
2022-10-09T01:47:41.556Z,97556.88
2022-10-09T01:50:26.040Z,97554.56
2022-10-09T01:53:03.955Z,97555.53
2022-10-09T01:55:52.015Z,97556.88
2022-10-09T01:58:37.506Z,97552.91
2022-10-09T02:01:09.093Z,97560.78
2022-10-09T02:03:38.566Z,97556.06
2022-10-09T02:06:07.896Z,97568.81
2022-10-09T02:08:36.639Z,97559.72
2022-10-09T02:11:04.016Z,97568.13
2022-10-09T02:13:32.291Z,97562.72
2022-10-09T02:16:04.682Z,97569.16
2022-10-09T02:18:40.283Z,97572.91
2022-10-09T02:21:35.901Z,97577.00
2022-10-09T02:24:05.139Z,97580.13
2022-10-09T02:26:32.576Z,97573.84
2022-10-09T02:28:59.021Z,97584.88
2022-10-09T02:31:32.109Z,97580.63
2022-10-09T02:34:01.745Z,97577.47
2022-10-09T02:36:29.292Z,97582.16
2022-10-09T02:38:56.378Z,97582.16
2022-10-09T02:41:23.474Z,97589.19
2022-10-09T02:43:50.586Z,97584.31
2022-10-09T02:46:17.516Z,97590.59
2022-10-09T02:48:44.299Z,97593.53
2022-10-09T02:51:10.854Z,97595.41
2022-10-09T02:53:37.396Z,97595.88
2022-10-09T02:56:03.944Z,97592.41
2022-10-09T02:58:32.359Z,97600.28
2022-10-09T03:00:58.994Z,97603.44
2022-10-09T03:03:25.930Z,97614.72
2022-10-09T03:06:04.090Z,97607.81
2022-10-09T03:08:31.066Z,97603.63
2022-10-09T03:10:57.696Z,97611.94
2022-10-09T03:13:24.345Z,97617.53
2022-10-09T03:15:50.890Z,97597.50
2022-10-09T03:18:17.522Z,97598.19
2022-10-09T03:20:44.093Z,97605.19
2022-10-09T03:23:11.130Z,97602.75
2022-10-09T03:25:37.877Z,97602.03
2022-10-09T03:28:05.000Z,97602.03
2022-10-09T03:30:31.615Z,97599.75
2022-10-09T03:32:58.155Z,97603.22
2022-10-09T03:35:24.665Z,97603.59
2022-10-09T03:37:51.216Z,97610.84
2022-10-09T03:40:18.430Z,97607.53
2022-10-09T03:42:44.960Z,97605.38
2022-10-09T03:45:11.485Z,97615.47
2022-10-09T03:47:38.006Z,97619.41
2022-10-09T03:50:04.975Z,97613.13
2022-10-09T03:52:31.519Z,97609.47
2022-10-09T03:54:58.042Z,97619.41
2022-10-09T03:57:24.539Z,97621.88
2022-10-09T03:59:51.093Z,97616.94
2022-10-09T04:02:17.730Z,97611.16
2022-10-09T04:04:44.255Z,97616.13
2022-10-09T04:07:10.769Z,97621.88
2022-10-09T04:09:37.353Z,97625.19
2022-10-09T04:12:04.071Z,97627.47
2022-10-09T04:14:30.610Z,97628.41
2022-10-09T04:16:57.149Z,97623.34
2022-10-09T04:19:23.660Z,97628.31
2022-10-09T04:21:50.156Z,97625.94
2022-10-09T04:24:16.804Z,97632.81
2022-10-09T04:26:43.312Z,97626.34
2022-10-09T04:29:11.245Z,97636.06
2022-10-09T04:31:37.819Z,97629.94
2022-10-09T04:34:04.477Z,97626.00
2022-10-09T04:36:31.050Z,97626.66
2022-10-09T04:38:57.682Z,97624.94
2022-10-09T04:41:24.218Z,97634.97
2022-10-09T04:43:55.502Z,97634.88
2022-10-09T04:46:23.130Z,97630.88
2022-10-09T04:48:49.933Z,97630.16
2022-10-09T04:51:17.884Z,97631.38
2022-10-09T04:53:45.188Z,97623.16
2022-10-09T04:56:15.419Z,97628.03
2022-10-09T04:58:42.323Z,97638.53
2022-10-09T05:01:11.804Z,97637.34
2022-10-09T05:03:38.636Z,97637.03
2022-10-09T05:06:08.276Z,97649.06
2022-10-09T05:08:35.237Z,97651.31
2022-10-09T05:11:06.876Z,97640.97
2022-10-09T05:13:36.678Z,97653.75
2022-10-09T05:16:05.437Z,97642.47
2022-10-09T05:18:32.033Z,97649.19
2022-10-09T05:20:58.632Z,97651.09
2022-10-09T05:23:25.507Z,97656.19
2022-10-09T05:26:00.007Z,97655.22
2022-10-09T05:28:27.218Z,97655.09
2022-10-09T05:30:53.849Z,97652.47
2022-10-09T05:33:20.691Z,97658.97
2022-10-09T05:35:54.993Z,97666.81
2022-10-09T05:38:22.694Z,97667.06
2022-10-09T05:41:00.196Z,97669.34
2022-10-09T05:43:47.183Z,97669.22
2022-10-09T05:46:14.652Z,97681.28
2022-10-09T05:48:43.579Z,97685.81
2022-10-09T05:51:15.903Z,97684.53
2022-10-09T05:53:44.027Z,97692.53
2022-10-09T05:56:12.366Z,97691.63
2022-10-09T05:58:38.890Z,97703.31
2022-10-09T06:01:05.645Z,97702.69
2022-10-09T06:03:32.243Z,97709.38
2022-10-09T06:06:05.993Z,97717.25
2022-10-09T06:08:34.243Z,97720.94
2022-10-09T06:11:15.098Z,97718.19
2022-10-09T06:13:43.504Z,97723.22
2022-10-09T06:16:11.815Z,97725.56
2022-10-09T06:18:39.800Z,97731.06
2022-10-09T06:21:06.951Z,97731.13
2022-10-09T06:23:34.635Z,97741.91
2022-10-09T06:26:03.899Z,97743.81
2022-10-09T06:28:31.943Z,97747.50
2022-10-09T06:31:25.953Z,97741.53
2022-10-09T06:33:53.354Z,97731.56
2022-10-09T06:36:20.749Z,97733.28
2022-10-09T06:38:49.093Z,97738.25
2022-10-09T06:41:22.895Z,97738.13
2022-10-09T06:43:57.734Z,97728.91
2022-10-09T06:46:30.355Z,97731.59
2022-10-09T06:48:59.399Z,97735.81
2022-10-09T06:51:28.206Z,97741.19
2022-10-09T06:53:57.802Z,97736.94
2022-10-09T06:56:26.589Z,97733.47
2022-10-09T06:58:53.410Z,97724.84
2022-10-09T07:01:26.855Z,97719.50
2022-10-09T07:03:59.150Z,97726.38
2022-10-09T07:06:28.190Z,97719.84
2022-10-09T07:09:02.857Z,97722.09
2022-10-09T07:11:33.263Z,97714.19
2022-10-09T07:14:02.387Z,97728.38
2022-10-09T07:16:31.507Z,97721.69
2022-10-09T07:19:01.099Z,97723.56
2022-10-09T07:21:27.692Z,97723.47
2022-10-09T07:23:54.362Z,97722.59
2022-10-09T07:26:24.065Z,97714.56
2022-10-09T07:28:51.476Z,97716.13
2022-10-09T07:31:18.462Z,97714.34
2022-10-09T07:33:48.667Z,97716.78
2022-10-09T07:36:15.283Z,97715.91
2022-10-09T07:38:42.515Z,97705.28
2022-10-09T07:41:11.668Z,97697.81
2022-10-09T07:43:40.075Z,97709.38
2022-10-09T07:46:09.997Z,97708.72
2022-10-09T07:48:36.709Z,97705.47
2022-10-09T07:51:20.961Z,97698.31
2022-10-09T07:53:47.861Z,97701.94
2022-10-09T07:56:29.819Z,97696.69
2022-10-09T07:58:58.747Z,97698.25
2022-10-09T08:01:27.980Z,97707.97
2022-10-09T08:03:55.449Z,97704.63
2022-10-09T08:06:22.371Z,97695.63
2022-10-09T08:08:50.869Z,97706.56
2022-10-09T08:11:19.012Z,97697.91
2022-10-09T08:13:46.948Z,97698.00
2022-10-09T08:16:14.874Z,97693.09
2022-10-09T08:18:41.697Z,97687.75
2022-10-09T08:21:14.530Z,97682.50
2022-10-09T08:23:41.277Z,97681.16
2022-10-09T08:26:16.054Z,97670.00
2022-10-09T08:28:43.347Z,97671.78
2022-10-09T08:31:14.383Z,97655.53
2022-10-09T08:33:41.498Z,97655.28
2022-10-09T08:36:10.214Z,97651.81
2022-10-09T08:38:47.062Z,97649.38
2022-10-09T08:41:16.620Z,97632.84
2022-10-09T08:43:48.065Z,97639.66
2022-10-09T08:46:24.854Z,97631.59
2022-10-09T08:48:53.510Z,97641.16
2022-10-09T08:51:35.170Z,97624.78
2022-10-09T08:54:04.148Z,97634.00
2022-10-09T08:56:33.274Z,97621.50
2022-10-09T08:59:01.637Z,97619.97
2022-10-09T09:01:48.311Z,97626.34
2022-10-09T09:04:24.830Z,97634.13
2022-10-09T09:06:54.400Z,97627.22
2022-10-09T09:09:31.929Z,97616.72
2022-10-09T09:12:17.326Z,97606.59
2022-10-09T09:15:05.178Z,97622.13
2022-10-09T09:17:44.289Z,97615.25
2022-10-09T09:20:30.090Z,97617.19
2022-10-09T09:23:01.083Z,97618.97
2022-10-09T09:25:41.153Z,97623.56
2022-10-09T09:28:20.543Z,97621.28
2022-10-09T09:30:52.795Z,97611.66
2022-10-09T09:33:44.936Z,97615.63
2022-10-09T09:36:38.803Z,97609.53
2022-10-09T09:41:54.464Z,97611.28
2022-10-09T09:44:21.373Z,97618.31
2022-10-09T09:46:49.448Z,97620.13
2022-10-09T09:49:27.187Z,97614.88
2022-10-09T09:52:00.189Z,97612.03
2022-10-09T09:54:30.565Z,97608.06
2022-10-09T09:57:12.768Z,97605.91
2022-10-09T09:59:43.260Z,97613.34
2022-10-09T10:02:14.666Z,97606.28
2022-10-09T10:05:27.517Z,97599.63
2022-10-09T10:07:54.700Z,97602.50
2022-10-09T10:10:25.635Z,97599.53
2022-10-09T10:12:52.857Z,97594.75
2022-10-09T10:15:25.636Z,97590.16
2022-10-09T10:18:14.090Z,97580.44
2022-10-09T10:20:46.763Z,97569.09
2022-10-09T10:23:51.076Z,97574.19
2022-10-09T10:26:21.553Z,97571.66
2022-10-09T10:29:25.320Z,97574.09
2022-10-09T10:32:22.710Z,97567.59
2022-10-09T10:34:55.445Z,97554.88
2022-10-09T10:37:27.928Z,97550.53
2022-10-09T10:40:01.342Z,97555.41
2022-10-09T10:42:57.359Z,97544.34
2022-10-09T10:46:00.984Z,97545.41
2022-10-09T10:48:40.091Z,97543.09
2022-10-09T10:51:24.850Z,97545.41
2022-10-09T10:53:51.335Z,97550.53
2022-10-09T10:56:35.916Z,97530.22
2022-10-09T10:59:20.968Z,97524.94
2022-10-09T11:02:04.039Z,97530.81
2022-10-09T11:04:51.772Z,97526.78
2022-10-09T11:07:34.260Z,97522.41
2022-10-09T11:10:21.455Z,97511.09
2022-10-09T11:12:48.631Z,97502.53
2022-10-09T11:15:21.278Z,97499.88
2022-10-09T11:18:05.965Z,97493.78
2022-10-09T11:21:01.692Z,97490.72
2022-10-09T11:23:37.382Z,97481.63
2022-10-09T11:26:36.523Z,97469.69
2022-10-09T11:29:10.911Z,97486.28
2022-10-09T11:32:03.930Z,97483.16
2022-10-09T11:34:45.847Z,97482.94
2022-10-09T11:37:21.109Z,97477.66
2022-10-09T11:39:47.954Z,97457.75
2022-10-09T11:42:19.878Z,97456.66
2022-10-09T11:44:53.424Z,97467.50
2022-10-09T11:47:44.709Z,97462.06
2022-10-09T11:50:35.970Z,97440.28
2022-10-09T11:53:09.199Z,97453.56
2022-10-09T11:55:36.564Z,97436.31
2022-10-09T11:58:24.683Z,97437.41
2022-10-09T12:00:54.786Z,97443.91
2022-10-09T12:03:34.889Z,97435.94
2022-10-09T12:06:07.440Z,97429.84
2022-10-09T12:08:34.551Z,97425.91
2022-10-09T12:11:09.192Z,97425.25
2022-10-09T12:13:39.164Z,97412.22
2022-10-09T12:16:07.485Z,97413.66
2022-10-09T12:18:44.243Z,97414.44
2022-10-09T12:21:29.011Z,97415.97
2022-10-09T12:23:55.915Z,97405.03
2022-10-09T12:26:25.125Z,97400.28
2022-10-09T12:28:56.399Z,97393.84
2022-10-09T12:31:28.760Z,97400.06
2022-10-09T12:34:01.725Z,97394.53
2022-10-09T12:36:31.414Z,97399.72
2022-10-09T12:39:12.316Z,97390.09
2022-10-09T12:41:39.430Z,97390.31
2022-10-09T12:44:07.575Z,97396.50
2022-10-09T12:46:39.262Z,97388.31
2022-10-09T12:49:18.909Z,97383.25
2022-10-09T12:51:55.377Z,97378.81
2022-10-09T12:54:25.159Z,97385.22
2022-10-09T12:56:57.173Z,97393.19
2022-10-09T12:59:26.260Z,97386.09
2022-10-09T13:01:57.751Z,97379.59
2022-10-09T13:04:31.517Z,97381.91
2022-10-09T13:07:02.112Z,97375.59
2022-10-09T13:09:34.966Z,97375.16
2022-10-09T13:12:25.966Z,97383.91
2022-10-09T13:14:57.245Z,97383.25
2022-10-09T13:17:39.213Z,97373.66
2022-10-09T13:20:11.866Z,97387.44
2022-10-09T13:22:39.531Z,97384.09
2022-10-09T13:25:06.718Z,97381.94
2022-10-09T13:27:35.271Z,97380.84
2022-10-09T13:30:02.271Z,97366.91
2022-10-09T13:32:28.883Z,97366.34
2022-10-09T13:34:55.659Z,97370.56
2022-10-09T13:37:24.163Z,97368.00
2022-10-09T13:39:55.312Z,97367.75
2022-10-09T13:42:25.218Z,97373.41
2022-10-09T13:44:51.854Z,97362.25
2022-10-09T13:47:23.385Z,97356.75
2022-10-09T13:49:50.902Z,97360.28
2022-10-09T13:52:17.689Z,97370.91
2022-10-09T13:54:44.304Z,97369.91
2022-10-09T13:57:10.838Z,97368.22
2022-10-09T13:59:37.986Z,97370.00
2022-10-09T14:02:04.545Z,97376.59
2022-10-09T14:04:31.184Z,97376.94
2022-10-09T14:06:57.797Z,97373.00
2022-10-09T14:09:24.523Z,97373.66
2022-10-09T14:11:51.085Z,97378.19
2022-10-09T14:14:17.630Z,97379.09
2022-10-09T14:16:44.339Z,97387.69
2022-10-09T14:19:11.757Z,97396.53
2022-10-09T14:21:38.461Z,97395.59
2022-10-09T14:24:05.653Z,97395.59
2022-10-09T14:26:32.529Z,97396.94
2022-10-09T14:29:01.046Z,97395.16
2022-10-09T14:31:28.545Z,97395.47
2022-10-09T14:33:58.369Z,97396.13
2022-10-09T14:36:25.599Z,97399.06
2022-10-09T14:38:52.197Z,97394.22
2022-10-09T14:41:19.932Z,97397.09
2022-10-09T14:43:48.024Z,97393.78
2022-10-09T14:46:17.178Z,97399.44
2022-10-09T14:48:45.544Z,97406.25
2022-10-09T14:51:14.717Z,97400.47
2022-10-09T14:53:41.896Z,97396.69
2022-10-09T14:56:10.941Z,97406.03
2022-10-09T14:58:39.076Z,97406.19
2022-10-09T15:01:06.580Z,97411.28
2022-10-09T15:03:34.572Z,97412.91
2022-10-09T15:06:04.753Z,97413.06
2022-10-09T15:08:36.600Z,97413.13
2022-10-09T15:11:03.627Z,97417.94
2022-10-09T15:13:31.713Z,97428.25
2022-10-09T15:16:00.097Z,97424.50
2022-10-09T15:18:27.806Z,97420.09
2022-10-09T15:20:54.452Z,97424.88
2022-10-09T15:23:21.144Z,97418.44
2022-10-09T15:25:51.574Z,97416.94
2022-10-09T15:28:19.240Z,97425.50
2022-10-09T15:30:47.016Z,97431.03
2022-10-09T15:33:13.652Z,97425.38
2022-10-09T15:35:40.528Z,97444.22
2022-10-09T15:38:07.860Z,97440.16
2022-10-09T15:40:46.472Z,97438.13
2022-10-09T15:43:15.048Z,97438.38
2022-10-09T15:45:42.292Z,97447.00
2022-10-09T15:48:12.533Z,97442.19
2022-10-09T15:50:39.113Z,97443.56
2022-10-09T15:53:10.986Z,97451.34
2022-10-09T15:55:38.204Z,97448.50
2022-10-09T15:58:05.289Z,97444.09
2022-10-09T16:00:36.673Z,97447.13
2022-10-09T16:03:03.755Z,97461.69
2022-10-09T16:05:30.452Z,97457.84
2022-10-09T16:07:57.131Z,97469.28
2022-10-09T16:10:23.651Z,97470.84
2022-10-09T16:12:50.513Z,97474.44
2022-10-09T16:15:17.420Z,97476.81
2022-10-09T16:17:44.026Z,97482.28
2022-10-09T16:20:10.589Z,97483.09
2022-10-09T16:22:37.167Z,97487.56
2022-10-09T16:25:03.912Z,97495.06
2022-10-09T16:27:30.696Z,97496.41
2022-10-09T16:29:57.253Z,97493.03
2022-10-09T16:32:23.823Z,97493.31
2022-10-09T16:34:50.412Z,97498.22
2022-10-09T16:37:17.014Z,97501.09
2022-10-09T16:39:45.237Z,97504.47
2022-10-09T16:42:11.986Z,97510.97
2022-10-09T16:44:38.673Z,97513.28
2022-10-09T16:47:05.256Z,97514.56
2022-10-09T16:49:31.849Z,97523.38
2022-10-09T16:51:58.442Z,97523.34
2022-10-09T16:54:24.972Z,97527.00
2022-10-09T16:56:51.554Z,97523.09
2022-10-09T16:59:18.307Z,97530.88
2022-10-09T17:01:46.483Z,97527.00
2022-10-09T17:04:13.156Z,97536.63
2022-10-09T17:06:46.568Z,97537.13
2022-10-09T17:09:14.324Z,97545.91
2022-10-09T17:11:41.985Z,97540.22
2022-10-09T17:14:08.439Z,97551.63
2022-10-09T17:16:38.366Z,97557.56
2022-10-09T17:19:05.336Z,97559.91
2022-10-09T17:21:34.528Z,97567.41
2022-10-09T17:24:03.202Z,97567.41
2022-10-09T17:26:30.345Z,97579.59
2022-10-09T17:28:58.805Z,97574.41
2022-10-09T17:31:26.885Z,97578.06
2022-10-09T17:34:04.460Z,97577.00
2022-10-09T17:36:34.344Z,97585.56
2022-10-09T17:39:01.317Z,97573.38
2022-10-09T17:41:28.324Z,97577.25
2022-10-09T17:43:56.550Z,97578.25
2022-10-09T17:46:25.055Z,97580.03
2022-10-09T17:48:56.140Z,97571.75
2022-10-09T17:51:26.051Z,97582.84
2022-10-09T17:53:54.309Z,97588.22
2022-10-09T17:56:20.924Z,97592.16
2022-10-09T17:58:48.745Z,97589.50
2022-10-09T18:01:16.832Z,97596.19
2022-10-09T18:03:44.454Z,97594.34
2022-10-09T18:06:14.271Z,97592.28
2022-10-09T18:08:40.950Z,97598.25
2022-10-09T18:11:10.564Z,97599.03
2022-10-09T18:13:38.876Z,97594.63
2022-10-09T18:16:07.772Z,97589.16
2022-10-09T18:18:34.692Z,97595.31
2022-10-09T18:21:06.143Z,97601.72
2022-10-09T18:23:32.925Z,97590.50
2022-10-09T18:26:00.025Z,97604.13
2022-10-09T18:30:58.808Z,97609.56
2022-10-09T18:33:25.422Z,97598.41
2022-10-09T18:35:51.956Z,97603.75
2022-10-09T18:38:18.475Z,97608.84
2022-10-09T18:40:45.926Z,97611.16
2022-10-09T18:43:12.907Z,97612.16
2022-10-09T18:45:44.630Z,97617.91
2022-10-09T18:48:11.537Z,97612.97
2022-10-09T18:50:38.165Z,97624.53
2022-10-09T18:53:04.921Z,97619.34
2022-10-09T18:55:31.810Z,97625.38
2022-10-09T18:58:01.763Z,97614.81
2022-10-09T19:00:28.399Z,97618.22
2022-10-09T19:02:55.059Z,97620.16
2022-10-09T19:05:21.666Z,97634.75
2022-10-09T19:07:48.480Z,97642.31
2022-10-09T19:10:15.242Z,97649.09
2022-10-09T19:12:42.723Z,97632.84
2022-10-09T19:15:12.328Z,97654.63
2022-10-09T19:17:39.257Z,97649.19
2022-10-09T19:20:06.276Z,97653.09
2022-10-09T19:22:32.835Z,97649.50
2022-10-09T19:24:59.491Z,97666.00
2022-10-09T19:27:26.853Z,97670.66
2022-10-09T19:29:53.716Z,97679.47
2022-10-09T19:32:23.864Z,97671.22
2022-10-09T19:34:50.693Z,97675.38
2022-10-09T19:37:17.298Z,97675.91
2022-10-09T19:39:48.405Z,97675.88
2022-10-09T19:42:18.715Z,97668.09
2022-10-09T19:44:45.994Z,97672.25
2022-10-09T19:47:14.587Z,97682.06
2022-10-09T19:49:41.682Z,97678.63
2022-10-09T19:52:08.556Z,97679.88
2022-10-09T19:54:36.012Z,97690.47
2022-10-09T19:57:02.541Z,97689.94
2022-10-09T19:59:29.931Z,97706.53
2022-10-09T20:01:57.669Z,97708.03
2022-10-09T20:04:24.847Z,97703.72
2022-10-09T20:06:51.702Z,97711.97
2022-10-09T20:09:18.448Z,97721.25
2022-10-09T20:11:44.980Z,97723.69
2022-10-09T20:14:11.567Z,97734.69
2022-10-09T20:16:38.458Z,97731.84
2022-10-09T20:19:05.256Z,97740.09
2022-10-09T20:21:33.141Z,97742.06
2022-10-09T20:24:01.338Z,97743.13
2022-10-09T20:26:28.544Z,97747.44
2022-10-09T20:28:55.384Z,97741.97
2022-10-09T20:31:25.486Z,97746.81
2022-10-09T20:33:53.402Z,97750.63
2022-10-09T20:36:21.619Z,97747.19
2022-10-09T20:38:48.914Z,97748.09
2022-10-09T20:41:16.046Z,97755.19
2022-10-09T20:43:42.736Z,97758.53
2022-10-09T20:46:14.622Z,97763.50
2022-10-09T20:48:42.482Z,97766.91
2022-10-09T20:51:09.842Z,97759.50
2022-10-09T20:53:36.397Z,97762.66
2022-10-09T20:56:08.269Z,97775.00
2022-10-09T20:58:36.074Z,97769.91
2022-10-09T21:01:11.605Z,97777.34
2022-10-09T21:03:39.188Z,97764.94
2022-10-09T21:06:08.041Z,97775.41
2022-10-09T21:08:35.505Z,97776.56
2022-10-09T21:11:06.257Z,97785.38
2022-10-09T21:13:33.013Z,97780.47
2022-10-09T21:15:59.527Z,97784.09
2022-10-09T21:18:26.199Z,97772.84
2022-10-09T21:20:52.707Z,97779.50
2022-10-09T21:23:19.445Z,97786.19
2022-10-09T21:25:47.905Z,97788.44
2022-10-09T21:28:14.516Z,97792.25
2022-10-09T21:30:41.846Z,97795.19
2022-10-09T21:33:09.322Z,97789.38
2022-10-09T21:35:49.120Z,97795.22
2022-10-09T21:38:19.375Z,97794.84
2022-10-09T21:40:47.005Z,97799.63
2022-10-09T21:43:13.807Z,97794.06
2022-10-09T21:45:40.792Z,97803.19
2022-10-09T21:48:07.670Z,97798.53
2022-10-09T21:50:34.730Z,97798.31
2022-10-09T21:53:01.308Z,97800.25
2022-10-09T21:55:28.160Z,97802.94
2022-10-09T21:57:54.877Z,97801.94
2022-10-09T22:00:21.552Z,97788.41
2022-10-09T22:02:48.434Z,97797.78
2022-10-09T22:05:15.199Z,97793.66
2022-10-09T22:07:41.722Z,97806.44
2022-10-09T22:10:08.620Z,97805.84
2022-10-09T22:12:35.213Z,97805.75
2022-10-09T22:15:01.884Z,97812.59
2022-10-09T22:17:28.500Z,97804.13
2022-10-09T22:19:55.026Z,97813.94
2022-10-09T22:22:23.713Z,97799.88
2022-10-09T22:24:51.859Z,97814.50
2022-10-09T22:27:18.742Z,97814.38
2022-10-09T22:29:45.584Z,97822.09
2022-10-09T22:32:12.134Z,97825.44
2022-10-09T22:34:38.665Z,97829.50
2022-10-09T22:37:05.283Z,97824.81
2022-10-09T22:39:31.906Z,97837.56
2022-10-09T22:41:58.419Z,97839.28
2022-10-09T22:44:24.946Z,97840.06
2022-10-09T22:46:51.835Z,97838.31
2022-10-09T22:49:18.601Z,97837.56
2022-10-09T22:51:46.127Z,97842.41
2022-10-09T22:54:13.147Z,97847.44
2022-10-09T22:56:42.797Z,97846.66
2022-10-09T22:59:11.614Z,97850.91
2022-10-09T23:01:48.460Z,97859.69
2022-10-09T23:04:16.853Z,97855.78
2022-10-09T23:06:44.989Z,97856.84
2022-10-09T23:09:14.487Z,97858.41
2022-10-09T23:11:41.390Z,97863.44
2022-10-09T23:14:08.170Z,97865.66
2022-10-09T23:16:34.901Z,97862.63
2022-10-09T23:19:06.434Z,97860.91
2022-10-09T23:21:34.934Z,97864.81
2022-10-09T23:24:01.733Z,97865.13
2022-10-09T23:26:30.505Z,97876.53
2022-10-09T23:29:03.994Z,97875.78
2022-10-09T23:31:31.077Z,97867.44
2022-10-09T23:33:58.391Z,97877.78
2022-10-09T23:36:27.336Z,97873.19
2022-10-09T23:38:54.503Z,97879.72
2022-10-09T23:41:23.475Z,97892.72
2022-10-09T23:43:51.217Z,97893.69
2022-10-09T23:46:20.956Z,97898.69
2022-10-09T23:48:48.181Z,97897.13
2022-10-09T23:51:15.631Z,97889.06
2022-10-09T23:53:42.613Z,97894.53
2022-10-09T23:56:14.837Z,97900.59
2022-10-09T23:58:41.345Z,97897.28
